Terminal Aerodrome Forecast
Issued by NWS

Home | Current Version | Previous Version | Graphics & Text | Print | Product List | Glossary On
Versions: 1 2 3 4 5 6 7 8 9 10 11 12 13 14 15 16 17 18 19
711
FTUS43 KLSX 281734
TAFSUS
TAF
KSUS 281734Z 2818/2918 19014G24KT P6SM FEW050 BKN250
     FM290100 19010KT P6SM BKN250
     FM291500 20012KT P6SM FEW035 BKN250=

USA.gov is the U.S. government's official web portal to all federal, state and local government web resources and services.